createdAt,value
2022-08-06T00:00:03.160Z,18.70
2022-08-06T00:02:22.693Z,18.70
2022-08-06T00:04:52.774Z,18.70
2022-08-06T00:07:22.403Z,18.70
2022-08-06T00:10:00.187Z,18.80
2022-08-06T00:12:33.452Z,18.80
2022-08-06T00:15:12.385Z,18.90
2022-08-06T00:17:44.036Z,19.00
2022-08-06T00:20:26.169Z,19.10
2022-08-06T00:23:00.137Z,19.10
2022-08-06T00:25:28.382Z,18.90
2022-08-06T00:27:55.250Z,18.80
2022-08-06T00:30:23.846Z,18.70
2022-08-06T00:32:52.164Z,18.70
2022-08-06T00:35:23.546Z,18.70
2022-08-06T00:37:54.947Z,18.80
2022-08-06T00:40:26.409Z,18.80
2022-08-06T00:43:02.520Z,18.80
2022-08-06T00:45:38.149Z,18.80
2022-08-06T00:48:09.329Z,18.60
2022-08-06T00:50:56.123Z,18.50
2022-08-06T00:53:22.916Z,18.50
2022-08-06T00:55:59.485Z,18.50
2022-08-06T00:58:28.860Z,18.40
2022-08-06T01:01:07.720Z,18.40
2022-08-06T01:03:51.741Z,18.40
2022-08-06T01:06:57.228Z,18.30
2022-08-06T01:09:10.419Z,18.30
2022-08-06T01:11:38.569Z,18.20
2022-08-06T01:14:09.472Z,18.20
2022-08-06T01:16:47.587Z,18.10
2022-08-06T01:19:50.662Z,18.10
2022-08-06T01:22:31.448Z,17.90
2022-08-06T01:25:12.738Z,17.80
2022-08-06T01:27:56.667Z,17.70
2022-08-06T01:30:38.589Z,17.50
2022-08-06T01:33:15.621Z,17.40
2022-08-06T01:35:54.979Z,17.10
2022-08-06T01:38:35.964Z,16.90
2022-08-06T01:41:07.401Z,16.80
2022-08-06T01:44:07.944Z,16.80
2022-08-06T01:46:25.394Z,16.70
2022-08-06T01:48:57.762Z,16.70
2022-08-06T01:52:14.843Z,16.80
2022-08-06T01:54:15.221Z,16.70
2022-08-06T01:56:57.309Z,16.60
2022-08-06T01:59:31.427Z,16.50
2022-08-06T02:02:01.344Z,16.50
2022-08-06T02:04:38.902Z,16.40
2022-08-06T02:08:33.863Z,16.40
2022-08-06T02:09:59.733Z,16.50
2022-08-06T02:12:28.958Z,16.60
2022-08-06T02:15:03.476Z,16.60
2022-08-06T02:18:03.405Z,16.60
2022-08-06T02:20:37.014Z,16.70
2022-08-06T02:23:08.693Z,16.70
2022-08-06T02:25:41.461Z,16.70
2022-08-06T02:28:12.006Z,16.90
2022-08-06T02:30:50.001Z,16.90
2022-08-06T02:33:19.166Z,17.00
2022-08-06T02:36:27.169Z,16.90
2022-08-06T02:39:07.667Z,16.80
2022-08-06T02:41:55.605Z,16.70
2022-08-06T02:44:46.014Z,16.70
2022-08-06T02:47:22.064Z,16.60
2022-08-06T02:50:06.169Z,16.50
2022-08-06T02:52:56.716Z,16.40
2022-08-06T02:55:34.372Z,16.50
2022-08-06T02:58:29.187Z,16.30
2022-08-06T03:01:08.922Z,16.40
2022-08-06T03:03:53.704Z,16.40
2022-08-06T03:06:26.617Z,16.40
2022-08-06T03:08:58.777Z,16.30
2022-08-06T03:11:32.007Z,16.30
2022-08-06T03:14:12.766Z,16.30
2022-08-06T03:16:57.754Z,16.30
2022-08-06T03:19:57.775Z,16.20
2022-08-06T03:22:34.578Z,16.10
2022-08-06T03:25:05.853Z,16.20
2022-08-06T03:27:43.392Z,16.10
2022-08-06T03:30:32.130Z,16.10
2022-08-06T03:33:07.675Z,16.00
2022-08-06T03:35:51.610Z,16.10
2022-08-06T03:38:22.643Z,16.00
2022-08-06T03:40:57.227Z,16.00
2022-08-06T03:43:27.713Z,16.00
2022-08-06T03:46:04.945Z,16.00
2022-08-06T03:48:41.805Z,16.00
2022-08-06T03:51:14.640Z,15.90
2022-08-06T03:53:46.609Z,15.90
2022-08-06T03:56:22.284Z,15.80
2022-08-06T03:58:51.783Z,15.80
2022-08-06T04:01:24.001Z,15.80
2022-08-06T04:03:54.472Z,15.80
2022-08-06T04:06:23.097Z,15.70
2022-08-06T04:08:55.142Z,15.80
2022-08-06T04:12:12.778Z,15.80
2022-08-06T04:14:11.001Z,15.70
2022-08-06T04:16:39.808Z,15.80
2022-08-06T04:19:12.805Z,15.80
2022-08-06T04:22:57.948Z,15.70
2022-08-06T04:24:30.994Z,15.70
2022-08-06T04:27:05.519Z,15.80
2022-08-06T04:29:57.055Z,15.80
2022-08-06T04:32:28.911Z,15.80
2022-08-06T04:36:06.769Z,15.80
2022-08-06T04:37:45.457Z,15.80
2022-08-06T04:40:19.983Z,15.90
2022-08-06T04:43:01.711Z,15.90
2022-08-06T04:46:18.067Z,15.90
2022-08-06T04:48:21.117Z,16.00
2022-08-06T04:50:48.714Z,16.00
2022-08-06T04:53:30.272Z,16.00
2022-08-06T04:56:15.127Z,16.00
2022-08-06T04:58:44.902Z,16.00
2022-08-06T05:01:12.391Z,16.00
2022-08-06T05:04:07.466Z,16.00
2022-08-06T05:06:53.740Z,16.00
2022-08-06T05:09:42.732Z,16.10
2022-08-06T05:12:22.969Z,16.30
2022-08-06T05:15:09.677Z,16.30
2022-08-06T05:17:41.403Z,16.40
2022-08-06T05:20:27.937Z,16.60
2022-08-06T05:23:03.579Z,16.60
2022-08-06T05:25:36.233Z,16.80
2022-08-06T05:28:11.180Z,16.70
2022-08-06T05:30:49.947Z,16.60
2022-08-06T05:33:24.709Z,16.60
2022-08-06T05:36:01.621Z,16.70
2022-08-06T05:38:31.759Z,16.70
2022-08-06T05:41:00.133Z,16.60
2022-08-06T05:43:58.872Z,16.70
2022-08-06T05:46:21.337Z,16.70
2022-08-06T05:48:55.247Z,16.80
2022-08-06T05:51:47.066Z,16.90
2022-08-06T05:54:21.982Z,16.90
2022-08-06T05:56:53.868Z,16.90
2022-08-06T05:59:38.182Z,16.90
2022-08-06T06:02:19.069Z,16.80
2022-08-06T06:06:02.021Z,16.80
2022-08-06T06:08:08.868Z,16.80
2022-08-06T06:10:26.796Z,16.80
2022-08-06T06:12:56.157Z,16.80
2022-08-06T06:16:00.441Z,16.90
2022-08-06T06:18:40.154Z,17.00
2022-08-06T06:21:32.547Z,17.00
2022-08-06T06:24:19.549Z,17.10
2022-08-06T06:27:02.587Z,17.10
2022-08-06T06:30:06.248Z,17.20
2022-08-06T06:32:47.704Z,17.30
2022-08-06T06:35:32.732Z,17.50
2022-08-06T06:38:13.813Z,17.60
2022-08-06T06:41:02.970Z,17.50
2022-08-06T06:43:39.582Z,17.60
2022-08-06T06:46:37.045Z,17.60
2022-08-06T06:50:02.807Z,17.70
2022-08-06T06:52:29.987Z,17.60
2022-08-06T06:55:36.827Z,17.70
2022-08-06T06:58:24.675Z,17.80
2022-08-06T07:01:12.148Z,17.90
2022-08-06T07:03:43.720Z,18.10
2022-08-06T07:06:11.749Z,18.30
2022-08-06T07:08:58.875Z,18.30
2022-08-06T07:11:27.757Z,18.20
2022-08-06T07:14:08.176Z,18.30
2022-08-06T07:16:36.893Z,18.30
2022-08-06T07:19:10.778Z,18.30
2022-08-06T07:21:42.368Z,18.30
2022-08-06T07:24:36.892Z,18.40
2022-08-06T07:27:03.911Z,18.30
2022-08-06T07:29:49.838Z,18.20
2022-08-06T07:32:30.826Z,18.10
2022-08-06T07:35:00.899Z,17.90
2022-08-06T07:37:38.479Z,17.80
2022-08-06T07:40:09.965Z,17.70
2022-08-06T07:42:39.288Z,17.60
2022-08-06T07:45:15.090Z,17.40
2022-08-06T07:47:54.143Z,17.30
2022-08-06T07:50:25.054Z,17.30
2022-08-06T07:52:56.682Z,17.30
2022-08-06T07:55:36.853Z,17.20
2022-08-06T07:58:05.942Z,17.20
2022-08-06T08:00:33.395Z,17.20
2022-08-06T08:03:57.287Z,17.20
2022-08-06T08:06:24.953Z,17.20
2022-08-06T08:09:10.801Z,17.30
2022-08-06T08:12:25.521Z,17.40
2022-08-06T08:14:29.760Z,17.30
2022-08-06T08:16:56.767Z,17.20
2022-08-06T08:19:34.953Z,17.10
2022-08-06T08:22:18.733Z,17.00
2022-08-06T08:24:51.497Z,16.90
2022-08-06T08:27:37.161Z,16.90
2022-08-06T08:30:05.026Z,16.80
2022-08-06T08:32:32.376Z,16.70
2022-08-06T08:35:00.692Z,16.70
2022-08-06T08:37:32.474Z,16.60
2022-08-06T08:39:59.675Z,16.70
2022-08-06T08:42:41.424Z,16.80
2022-08-06T08:45:13.032Z,17.10
2022-08-06T08:47:57.361Z,17.20
2022-08-06T08:50:29.857Z,17.30
2022-08-06T08:53:45.628Z,17.30
2022-08-06T08:57:10.441Z,17.40
2022-08-06T08:59:02.189Z,17.40
2022-08-06T09:01:52.697Z,17.70
2022-08-06T09:04:21.271Z,17.90
2022-08-06T09:06:52.121Z,18.30
2022-08-06T09:09:19.455Z,18.80
2022-08-06T09:12:04.184Z,18.70
2022-08-06T09:14:34.197Z,18.50
2022-08-06T09:17:02.149Z,18.40
2022-08-06T09:19:38.203Z,18.40
2022-08-06T09:22:09.254Z,18.30
2022-08-06T09:24:39.284Z,18.30
2022-08-06T09:27:46.735Z,18.30
2022-08-06T09:30:11.558Z,18.70
2022-08-06T09:32:55.053Z,18.90
2022-08-06T09:35:44.048Z,19.20
2022-08-06T09:38:16.507Z,19.30
2022-08-06T09:41:06.853Z,19.40
2022-08-06T09:44:03.848Z,19.50
2022-08-06T09:46:48.942Z,19.80
2022-08-06T09:49:48.292Z,19.80
2022-08-06T09:52:17.949Z,20.10
2022-08-06T09:54:46.431Z,20.10
2022-08-06T09:57:15.218Z,20.30
2022-08-06T09:59:44.729Z,20.10
2022-08-06T10:02:23.667Z,20.10
2022-08-06T10:05:17.953Z,19.90
2022-08-06T10:07:52.954Z,20.10
2022-08-06T10:10:40.806Z,20.30
2022-08-06T10:13:15.157Z,20.40
2022-08-06T10:16:00.775Z,20.00
2022-08-06T10:18:56.081Z,19.60
2022-08-06T10:21:27.407Z,19.50
2022-08-06T10:24:05.929Z,19.60
2022-08-06T10:26:34.306Z,19.70
2022-08-06T10:29:06.560Z,19.80
2022-08-06T10:31:36.231Z,19.90
2022-08-06T10:34:18.439Z,19.80
2022-08-06T10:36:52.970Z,20.10
2022-08-06T10:40:02.875Z,20.40
2022-08-06T10:42:21.899Z,20.90
2022-08-06T10:44:51.567Z,21.10
2022-08-06T10:49:00.400Z,21.10
2022-08-06T10:50:32.248Z,21.30
2022-08-06T10:52:59.451Z,21.90
2022-08-06T10:55:37.733Z,22.20
2022-08-06T10:58:13.362Z,22.40
2022-08-06T11:00:45.019Z,22.30
2022-08-06T11:03:52.008Z,22.10
2022-08-06T11:06:52.185Z,21.90
2022-08-06T11:10:01.838Z,22.00
2022-08-06T11:12:42.727Z,22.10
2022-08-06T11:15:15.366Z,22.40
2022-08-06T11:17:52.816Z,22.30
2022-08-06T11:20:34.934Z,22.70
2022-08-06T11:23:51.965Z,22.40
2022-08-06T11:26:10.449Z,22.70
2022-08-06T11:28:57.241Z,23.20
2022-08-06T11:31:56.203Z,23.30
2022-08-06T11:34:51.112Z,23.20
2022-08-06T11:38:02.893Z,23.20
2022-08-06T11:40:57.499Z,23.50
2022-08-06T11:43:58.278Z,23.80
2022-08-06T11:46:36.018Z,24.10
2022-08-06T11:49:04.366Z,23.80
2022-08-06T11:51:48.027Z,23.20
2022-08-06T11:54:28.704Z,23.80
2022-08-06T11:57:16.138Z,24.20
2022-08-06T11:59:56.603Z,23.80
2022-08-06T12:02:44.532Z,23.50
2022-08-06T12:05:17.304Z,23.40
2022-08-06T12:08:38.813Z,23.60
2022-08-06T12:11:26.224Z,23.80
2022-08-06T12:14:31.710Z,23.90
2022-08-06T12:16:41.222Z,24.10
2022-08-06T12:19:19.995Z,24.10
2022-08-06T12:21:53.040Z,24.20
2022-08-06T12:24:45.283Z,24.20
2022-08-06T12:27:17.262Z,24.60
2022-08-06T12:29:59.933Z,25.00
2022-08-06T12:32:34.727Z,24.80
2022-08-06T12:35:11.788Z,24.80
2022-08-06T12:37:48.199Z,25.20
2022-08-06T12:40:25.259Z,25.50
2022-08-06T12:42:55.182Z,26.30
2022-08-06T12:46:04.165Z,27.20
2022-08-06T12:48:16.422Z,28.30
2022-08-06T12:50:44.388Z,28.30
2022-08-06T12:53:15.445Z,28.90
2022-08-06T12:55:56.563Z,28.90
2022-08-06T12:58:42.489Z,28.60
2022-08-06T13:01:16.445Z,28.80
2022-08-06T13:04:08.778Z,28.50
2022-08-06T13:06:37.239Z,28.50
2022-08-06T13:09:07.533Z,28.40
2022-08-06T13:11:37.111Z,28.90
2022-08-06T13:14:18.259Z,29.80
2022-08-06T13:16:54.956Z,30.40
2022-08-06T13:19:32.362Z,29.70
2022-08-06T13:22:03.176Z,29.40
2022-08-06T13:24:34.417Z,27.60
2022-08-06T13:27:06.037Z,27.00
2022-08-06T13:30:33.655Z,27.70
2022-08-06T13:32:33.311Z,28.60
2022-08-06T13:35:07.374Z,28.50
2022-08-06T13:38:15.032Z,26.80
2022-08-06T13:40:57.078Z,25.50
2022-08-06T13:43:53.609Z,24.50
2022-08-06T13:46:29.965Z,24.60
2022-08-06T13:49:04.454Z,26.60
2022-08-06T13:51:48.735Z,28.10
2022-08-06T13:54:22.857Z,29.10
2022-08-06T13:56:52.589Z,29.50
2022-08-06T13:59:40.136Z,30.80
2022-08-06T14:02:09.198Z,31.60
2022-08-06T14:04:38.281Z,30.90
2022-08-06T14:07:05.226Z,29.40
2022-08-06T14:09:41.166Z,28.30
2022-08-06T14:12:20.559Z,27.20
2022-08-06T14:14:47.992Z,25.70
2022-08-06T14:17:15.352Z,26.30
2022-08-06T14:20:14.833Z,27.80
2022-08-06T14:22:37.013Z,29.70
2022-08-06T14:25:06.281Z,29.60
2022-08-06T14:27:42.775Z,29.80
2022-08-06T14:30:27.646Z,30.60
2022-08-06T14:32:57.926Z,32.20
2022-08-06T14:35:26.060Z,32.30
2022-08-06T14:37:55.945Z,32.80
2022-08-06T14:40:59.044Z,33.50
2022-08-06T14:43:56.509Z,33.00
2022-08-06T14:46:26.156Z,29.40
2022-08-06T14:48:57.516Z,27.30
2022-08-06T14:51:37.387Z,26.50
2022-08-06T14:54:13.933Z,27.30
2022-08-06T14:56:45.961Z,29.10
2022-08-06T14:59:22.724Z,30.40
2022-08-06T15:01:51.816Z,30.50
2022-08-06T15:04:24.730Z,29.70
2022-08-06T15:06:57.366Z,28.40
2022-08-06T15:09:28.111Z,27.60
2022-08-06T15:12:29.618Z,28.40
2022-08-06T15:15:04.909Z,29.20
2022-08-06T15:18:03.912Z,30.80
2022-08-06T15:20:25.095Z,31.80
2022-08-06T15:22:53.138Z,32.30
2022-08-06T15:25:44.756Z,33.50
2022-08-06T15:28:07.170Z,33.10
2022-08-06T15:30:34.072Z,31.40
2022-08-06T15:33:02.078Z,30.80
2022-08-06T15:35:43.452Z,30.80
2022-08-06T15:38:19.953Z,31.30
2022-08-06T15:40:46.711Z,31.60
2022-08-06T15:43:14.018Z,29.60
2022-08-06T15:45:51.301Z,27.90
2022-08-06T15:48:28.347Z,27.30
2022-08-06T15:51:29.415Z,27.10
2022-08-06T15:53:54.737Z,26.30
2022-08-06T15:56:33.507Z,25.90
2022-08-06T15:59:06.174Z,25.60
2022-08-06T16:01:52.789Z,27.30
2022-08-06T16:04:27.372Z,29.70
2022-08-06T16:06:56.734Z,31.60
2022-08-06T16:09:28.320Z,32.00
2022-08-06T16:11:59.365Z,31.70
2022-08-06T16:14:32.994Z,32.50
2022-08-06T16:17:04.182Z,32.50
2022-08-06T16:19:49.547Z,31.50
2022-08-06T16:22:18.044Z,30.60
2022-08-06T16:24:44.966Z,28.60
2022-08-06T16:27:11.871Z,27.90
2022-08-06T16:29:41.902Z,27.00
2022-08-06T16:32:09.899Z,26.20
2022-08-06T16:34:37.149Z,25.80
2022-08-06T16:37:28.367Z,26.20
2022-08-06T16:39:57.411Z,27.00
2022-08-06T16:42:29.874Z,28.10
2022-08-06T16:45:03.121Z,28.60
2022-08-06T16:48:18.378Z,29.30
2022-08-06T16:50:27.997Z,30.30
2022-08-06T16:54:13.023Z,30.30
2022-08-06T16:55:49.342Z,30.30
2022-08-06T17:02:15.463Z,30.60
2022-08-06T17:03:59.051Z,30.50
2022-08-06T17:06:38.654Z,30.10
2022-08-06T17:09:16.784Z,29.40
2022-08-06T17:11:58.316Z,29.40
2022-08-06T17:14:28.008Z,29.70
2022-08-06T17:16:55.087Z,29.10
2022-08-06T17:19:22.242Z,28.30
2022-08-06T17:27:44.100Z,25.90
2022-08-06T17:30:14.638Z,25.30
2022-08-06T17:32:46.797Z,25.00
2022-08-06T17:35:15.977Z,25.00
2022-08-06T17:37:50.254Z,24.80
2022-08-06T17:40:31.465Z,24.60
2022-08-06T17:43:12.194Z,24.00
2022-08-06T17:45:51.676Z,23.80
2022-08-06T17:48:24.896Z,23.80
2022-08-06T17:50:52.875Z,23.60
2022-08-06T17:53:21.809Z,23.40
2022-08-06T17:56:00.225Z,23.40
2022-08-06T17:58:53.117Z,23.50
2022-08-06T18:01:43.883Z,23.60
2022-08-06T18:04:07.342Z,23.70
2022-08-06T18:06:50.102Z,23.80
2022-08-06T18:10:11.756Z,23.80
2022-08-06T18:12:05.280Z,23.60
2022-08-06T18:14:36.070Z,23.30
2022-08-06T18:17:03.018Z,23.00
2022-08-06T18:19:34.262Z,22.90
2022-08-06T18:22:21.590Z,22.80
2022-08-06T18:24:52.124Z,22.80
2022-08-06T18:27:53.427Z,22.60
2022-08-06T18:30:36.444Z,22.60
2022-08-06T18:33:03.839Z,22.40
2022-08-06T18:35:33.326Z,22.30
2022-08-06T18:38:04.495Z,21.90
2022-08-06T18:40:40.371Z,21.90
2022-08-06T18:43:10.117Z,21.60
2022-08-06T18:45:59.313Z,21.50
2022-08-06T18:48:27.152Z,21.30
2022-08-06T18:50:58.105Z,21.20
2022-08-06T18:54:00.369Z,21.10
2022-08-06T18:56:16.686Z,20.90
2022-08-06T18:58:47.005Z,20.90
2022-08-06T19:01:21.281Z,20.90
2022-08-06T19:03:50.293Z,20.70
2022-08-06T19:06:18.252Z,20.60
2022-08-06T19:08:58.445Z,20.50
2022-08-06T19:11:26.764Z,20.40
2022-08-06T19:14:18.234Z,20.40
2022-08-06T19:16:48.631Z,20.20
2022-08-06T19:19:24.836Z,20.10
2022-08-06T19:22:10.151Z,19.90
2022-08-06T19:24:39.662Z,19.60
2022-08-06T19:27:08.071Z,19.20
2022-08-06T19:29:58.158Z,19.00
2022-08-06T19:32:28.127Z,18.60
2022-08-06T19:34:59.743Z,18.20
2022-08-06T19:37:58.749Z,18.10
2022-08-06T19:40:34.415Z,17.90
2022-08-06T19:44:28.366Z,17.70
2022-08-06T19:46:30.401Z,17.50
2022-08-06T19:48:36.468Z,17.50
2022-08-06T19:51:15.241Z,17.40
2022-08-06T19:53:54.418Z,17.10
2022-08-06T19:56:21.881Z,17.10
2022-08-06T20:00:51.493Z,17.20
2022-08-06T20:01:49.763Z,17.30
2022-08-06T20:04:31.049Z,17.40
2022-08-06T20:07:01.649Z,17.30
2022-08-06T20:09:58.989Z,17.30
2022-08-06T20:12:29.829Z,17.30
2022-08-06T20:14:59.109Z,17.10
2022-08-06T20:17:29.850Z,17.10
2022-08-06T20:20:13.943Z,16.90
2022-08-06T20:22:43.156Z,16.90
2022-08-06T20:25:18.526Z,16.90
2022-08-06T20:29:07.539Z,16.80
2022-08-06T20:30:34.382Z,16.90
2022-08-06T20:33:02.076Z,16.70
2022-08-06T20:35:32.631Z,16.30
2022-08-06T20:38:07.380Z,15.90
2022-08-06T20:41:26.409Z,15.80
2022-08-06T20:44:04.700Z,15.60
2022-08-06T20:46:09.992Z,15.60
2022-08-06T20:48:39.462Z,15.80
2022-08-06T20:51:06.286Z,15.70
2022-08-06T20:53:37.369Z,15.80
2022-08-06T20:56:04.765Z,15.70
2022-08-06T20:58:32.624Z,15.60
2022-08-06T21:01:00.366Z,15.40
2022-08-06T21:05:11.138Z,15.20
2022-08-06T21:06:14.338Z,15.00
2022-08-06T21:08:50.630Z,14.80
2022-08-06T21:11:18.480Z,14.40
2022-08-06T21:14:03.605Z,14.40
2022-08-06T21:16:34.752Z,14.30
2022-08-06T21:19:06.859Z,14.30
2022-08-06T21:21:35.302Z,14.40
2022-08-06T21:24:04.778Z,14.40
2022-08-06T21:26:34.485Z,14.40
2022-08-06T21:30:08.382Z,14.30
2022-08-06T21:31:49.726Z,14.30
2022-08-06T21:34:19.516Z,14.10
2022-08-06T21:36:47.212Z,14.20
2022-08-06T21:39:16.920Z,14.30
2022-08-06T21:41:55.231Z,14.50
2022-08-06T21:44:24.556Z,14.60
2022-08-06T21:46:57.876Z,14.60
2022-08-06T21:50:19.269Z,14.40
2022-08-06T21:52:28.182Z,14.10
2022-08-06T21:55:11.402Z,13.80
2022-08-06T21:57:49.036Z,13.80
2022-08-06T22:00:34.225Z,13.80
2022-08-06T22:03:06.798Z,13.80
2022-08-06T22:06:20.390Z,13.70
2022-08-06T22:08:28.022Z,13.80
2022-08-06T22:12:38.939Z,13.90
2022-08-06T22:13:57.142Z,13.80
2022-08-06T22:16:32.988Z,13.90
2022-08-06T22:19:00.882Z,13.80
2022-08-06T22:21:41.729Z,13.60
2022-08-06T22:24:16.420Z,13.70
2022-08-06T22:26:43.203Z,13.50
2022-08-06T22:29:17.613Z,13.60
2022-08-06T22:31:56.691Z,13.70
2022-08-06T22:34:36.374Z,13.40
2022-08-06T22:37:06.729Z,13.50
2022-08-06T22:39:41.901Z,13.50
2022-08-06T22:42:09.566Z,13.40
2022-08-06T22:45:06.707Z,13.30
2022-08-06T22:47:28.828Z,13.10
2022-08-06T22:50:05.950Z,12.90
2022-08-06T22:53:03.147Z,12.80
2022-08-06T22:55:26.964Z,12.80
2022-08-06T22:58:47.701Z,12.70
2022-08-06T23:00:43.142Z,12.40
2022-08-06T23:03:13.896Z,12.60
2022-08-06T23:05:44.524Z,12.80
2022-08-06T23:08:14.798Z,12.90
2022-08-06T23:10:48.265Z,12.70
2022-08-06T23:13:25.442Z,12.70
2022-08-06T23:15:54.345Z,12.60
2022-08-06T23:18:22.388Z,12.40
2022-08-06T23:21:15.372Z,12.30
2022-08-06T23:23:47.819Z,12.20
2022-08-06T23:26:16.529Z,11.90
2022-08-06T23:28:43.310Z,11.80
2022-08-06T23:31:13.086Z,11.70
2022-08-06T23:33:49.909Z,11.70
2022-08-06T23:36:22.023Z,11.60
2022-08-06T23:38:52.525Z,11.60
2022-08-06T23:41:24.465Z,11.60
2022-08-06T23:44:07.706Z,11.50
2022-08-06T23:46:51.308Z,11.40
2022-08-06T23:49:24.019Z,11.40
2022-08-06T23:52:04.081Z,11.60
2022-08-06T23:54:31.483Z,11.70
2022-08-06T23:56:58.265Z,11.60
2022-08-06T23:59:45.656Z,11.40
